Autopride — CQQE — position and weather

sailwx.info

Track history (hours):
 
Tides and Currents Weather Stations Pressure Air Temp Water Temp Dewpoint Dewpoint Depression Visibility Wind Speed Wind Dir Waves Ship Positions

Autopride

Last reported at 2018-Apr-20 05:03 UTC. Time now 2018-Apr-20 10:58 UTC.
Position N 57°30' E 008°42'.

Length 125 m; draft 5.3 m.

Type: Cargo ship. MMSI: 255801560.

Date/timePositionNaut miles runAvg speedWind from/ knotsBaromVisibWave heightAir tempDewpointWater temp
2018-Apr-20 05:03N 57°30' E 008°42'011.9
2018-Apr-20 05:00N 57°31' E 008°43'611.9
2018-Apr-20 04:28N 57°36' E 008°49'712.0
2018-Apr-20 03:53N 57°42' E 008°56'512.1
2018-Apr-20 03:28N 57°46' E 009°02'612.5
2018-Apr-20 02:58N 57°51' E 009°09'612.9
2018-Apr-20 02:30N 57°56' E 009°15'612.7
2018-Apr-20 02:00N 58°01' E 009°23'712.6
2018-Apr-20 01:29N 58°06' E 009°30'612.3
2018-Apr-20 01:00N 58°11' E 009°37'612.6
2018-Apr-20 00:30N 58°16' E 009°44'712.2
2018-Apr-19 23:56N 58°22' E 009°51'612.4
2018-Apr-19 23:29N 58°26' E 009°57'712.5
2018-Apr-19 22:58N 58°32' E 010°05'712.5
2018-Apr-19 22:26N 58°37' E 010°12'512.6
2018-Apr-19 22:00N 58°42' E 010°18'713.4
2018-Apr-19 21:30N 58°48' E 010°24'713.2
2018-Apr-19 21:00N 58°54' E 010°29'613.0
2018-Apr-19 20:30N 58°60' E 010°33'714.6
2018-Apr-19 20:01N 59°07' E 010°37'1019.1
2018-Apr-19 19:31N 59°16' E 010°36'918.3
2018-Apr-19 19:00N 59°25' E 010°32'816.7
2018-Apr-19 18:30N 59°32' E 010°24'5 9.5
2018-Apr-19 18:00N 59°37' E 010°25'612.5
2018-Apr-19 17:30N 59°43' E 010°18'3 5.3
2018-Apr-19 17:00N 59°44' E 010°14'0 0.0
2018-Apr-19 16:28N 59°44' E 010°14'0 0.0
2018-Apr-19 15:58N 59°44' E 010°14'0 0.0
2018-Apr-19 15:28N 59°44' E 010°14'0 0.0
2018-Apr-19 14:58N 59°44' E 010°14'0 0.0
2018-Apr-19 14:28N 59°44' E 010°14'0 0.0
2018-Apr-19 13:58N 59°44' E 010°14'0 0.0
2018-Apr-19 13:30N 59°44' E 010°14'4 7.8
2018-Apr-19 13:00N 59°42' E 010°21'611.3
2018-Apr-19 12:30N 59°37' E 010°25'5 9.9
2018-Apr-19 12:00N 59°32' E 010°24'612.5
2018-Apr-19 11:30N 59°32' E 010°36'816.9
2018-Apr-19 11:00N 59°41' E 010°37'917.5
2018-Apr-19 10:30N 59°50' E 010°35'612.8
2018-Apr-19 10:00N 59°53' E 010°46'0 0.0
2018-Apr-19 09:29N 59°53' E 010°46'0 0.0
2018-Apr-19 08:59N 59°53' E 010°46'0 0.0
2018-Apr-19 08:29N 59°53' E 010°46'0 0.0
2018-Apr-19 07:59N 59°53' E 010°46'0 0.0
2018-Apr-19 07:29N 59°53' E 010°46'0 0.0
2018-Apr-19 06:59N 59°53' E 010°46'0 0.0
2018-Apr-19 06:29N 59°53' E 010°46'0 0.0
2018-Apr-19 05:59N 59°53' E 010°46'0 0.0
2018-Apr-19 05:29N 59°53' E 010°46'0 0.0
2018-Apr-19 04:59N 59°53' E 010°46'0 0.0
2018-Apr-19 04:29N 59°53' E 010°46'0 0.0
2018-Apr-19 03:59N 59°53' E 010°46'1 3.1
2018-Apr-19 03:30N 59°53' E 010°43'714.6
2018-Apr-19 03:00N 59°47' E 010°34'714.7
2018-Apr-19 02:30N 59°40' E 010°37'917.9
2018-Apr-19 02:00N 59°31' E 010°35'1019.1
2018-Apr-19 01:30N 59°21' E 010°35'1019.5
2018-Apr-19 01:00N 59°12' E 010°38'918.8
2018-Apr-19 00:30N 59°02' E 010°34'918.3
2018-Apr-19 00:00N 58°54' E 010°25'917.2
2018-Apr-18 23:30N 58°47' E 010°16'917.3
2018-Apr-18 23:00N 58°40' E 010°07'917.6
2018-Apr-18 22:30N 58°33' E 009°58'918.0
2018-Apr-18 22:00N 58°25' E 009°49'918.3
2018-Apr-18 21:30N 58°17' E 009°39'918.2
2018-Apr-18 20:59N 58°09' E 009°30'15918.7
2018-Apr-18 12:28N 55°45' E 007°26'818.2
2018-Apr-18 12:00N 55°37' E 007°22'918.2
2018-Apr-18 11:30N 55°28' E 007°22'918.7
2018-Apr-18 11:00N 55°19' E 007°24'918.3
2018-Apr-18 10:30N 55°10' E 007°25'918.5
2018-Apr-18 10:00N 55°00' E 007°26'918.4
2018-Apr-18 09:30N 54°51' E 007°27'918.4
2018-Apr-18 09:00N 54°42' E 007°29'5018.0
2018-Apr-18 06:13N 53°53' E 007°49'519.0
2018-Apr-18 05:58N 53°52' E 007°56'919.2
2018-Apr-18 05:30N 53°47' E 008°09'1020.6
2018-Apr-18 05:00N 53°40' E 008°22'917.6
2018-Apr-18 04:30N 53°34' E 008°33'1 1.6
2018-Apr-18 04:01N 53°33' E 008°34'1 1.1
2018-Apr-18 03:30N 53°34' E 008°34'0 0.0
2018-Apr-18 03:00N 53°34' E 008°34'0 0.0
2018-Apr-18 02:30N 53°34' E 008°34'0 0.0
2018-Apr-18 02:00N 53°34' E 008°34'0 0.0
2018-Apr-18 01:30N 53°34' E 008°34'0 0.0
2018-Apr-18 01:00N 53°34' E 008°34'0 0.0
2018-Apr-18 00:30N 53°34' E 008°34'0 0.0
2018-Apr-18 00:00N 53°34' E 008°34'0 0.0
2018-Apr-17 23:30N 53°34' E 008°34'0 0.0
2018-Apr-17 23:00N 53°34' E 008°34'0 0.0
2018-Apr-17 22:30N 53°34' E 008°34'0 0.0
2018-Apr-17 22:00N 53°34' E 008°34'0 0.0
2018-Apr-17 21:30N 53°34' E 008°34'0 0.0
2018-Apr-17 21:00N 53°34' E 008°34'0 0.0
2018-Apr-17 20:30N 53°34' E 008°34'0 0.9
2018-Apr-17 20:01N 53°34' E 008°33'1 1.8
2018-Apr-17 19:28N 53°35' E 008°33'0 0.0
2018-Apr-17 18:58N 53°35' E 008°33'0 0.0
2018-Apr-17 18:28N 53°35' E 008°33'0 0.0
2018-Apr-17 17:58N 53°35' E 008°33'0 0.0
2018-Apr-17 17:28N 53°35' E 008°33'0 0.0
2018-Apr-17 16:58N 53°35' E 008°33'0 0.0
2018-Apr-17 16:25N 53°35' E 008°33'0 0.0
2018-Apr-17 15:58N 53°35' E 008°33'0 0.0
2018-Apr-17 15:28N 53°35' E 008°33'0 0.0
2018-Apr-17 14:58N 53°35' E 008°33'0 0.0
2018-Apr-17 14:28N 53°35' E 008°33'0 0.0
2018-Apr-17 13:58N 53°35' E 008°33'0 0.0
2018-Apr-17 13:28N 53°35' E 008°33'0 0.0
2018-Apr-17 12:58N 53°35' E 008°33'0 0.0
2018-Apr-17 12:28N 53°35' E 008°33'0 0.0
2018-Apr-17 12:00N 53°35' E 008°33'1 2.6
2018-Apr-17 11:30N 53°33' E 008°34'0 0.0
2018-Apr-17 11:00N 53°33' E 008°34'3 5.9
2018-Apr-17 10:30N 53°36' E 008°31'816.8
2018-Apr-17 10:00N 53°42' E 008°20'1019.3
2018-Apr-17 09:30N 53°48' E 008°08'1018.5
2018-Apr-17 08:57N 53°52' E 007°52'1416.7
2018-Apr-17 08:09N 54°01' E 007°35'317.8
2018-Apr-17 08:00N 54°03' E 007°33'1419.1
2018-Apr-17 07:17N 54°16' E 007°27'720.0
2018-Apr-17 06:55N 54°23' E 007°26'1119.8
2018-Apr-17 06:22N 54°34' E 007°26'919.3
2018-Apr-17 05:55N 54°43' E 007°25'819.2
2018-Apr-17 05:30N 54°51' E 007°25'918.9
2018-Apr-17 05:00N 55°00' E 007°24'918.7
2018-Apr-17 04:30N 55°10' E 007°24'918.4
2018-Apr-17 04:00N 55°19' E 007°23'918.3
2018-Apr-17 03:30N 55°28' E 007°21'918.4
2018-Apr-17 03:00N 55°37' E 007°22'1018.9
2018-Apr-17 02:29N 55°47' E 007°27'19119.6
2018-Apr-16 16:45N 58°36' E 010°10'520.0
2018-Apr-16 16:30N 58°40' E 010°15'1019.9
2018-Apr-16 16:00N 58°48' E 010°25'1019.6
2018-Apr-16 15:30N 58°57' E 010°32'1019.9
2018-Apr-16 15:00N 59°07' E 010°37'1019.2
2018-Apr-16 14:30N 59°17' E 010°36'1019.3
2018-Apr-16 14:00N 59°26' E 010°33'1019.3
2018-Apr-16 13:30N 59°35' E 010°38'816.3
2018-Apr-16 13:01N 59°43' E 010°34'918.6
2018-Apr-16 12:31N 59°52' E 010°39'4 7.3
2018-Apr-16 12:00N 59°53' E 010°46'0 0.0
2018-Apr-16 11:28N 59°53' E 010°46'0 0.0
2018-Apr-16 10:58N 59°53' E 010°46'0 0.0
2018-Apr-16 10:28N 59°53' E 010°46'0 0.0
2018-Apr-16 09:58N 59°53' E 010°46'0 0.0
2018-Apr-16 09:28N 59°53' E 010°46'0 0.0
2018-Apr-16 08:58N 59°53' E 010°46'0 0.0
2018-Apr-16 08:28N 59°53' E 010°46'0 0.0
2018-Apr-16 07:58N 59°53' E 010°46'0 0.0
2018-Apr-16 07:28N 59°53' E 010°46'0 0.0
2018-Apr-16 06:58N 59°53' E 010°46'0 0.0
2018-Apr-16 06:28N 59°53' E 010°46'0 0.0
2018-Apr-16 05:58N 59°53' E 010°46'0 0.0
2018-Apr-16 05:28N 59°53' E 010°46'0 0.0
2018-Apr-16 04:58N 59°53' E 010°46'0 0.0
2018-Apr-16 04:28N 59°53' E 010°46'0 0.6
2018-Apr-16 04:00N 59°53' E 010°46'713.5
2018-Apr-16 03:31N 59°49' E 010°35'816.2
2018-Apr-16 03:00N 59°41' E 010°37'816.8
2018-Apr-16 02:30N 59°33' E 010°37'1019.5
2018-Apr-16 02:00N 59°23' E 010°35'1020.2
2018-Apr-16 01:30N 59°13' E 010°38'1019.0
2018-Apr-16 01:00N 59°04' E 010°36'919.0
2018-Apr-16 00:30N 58°55' E 010°27'815.7
2018-Apr-16 00:00N 58°49' E 010°18'815.7
2018-Apr-15 23:30N 58°42' E 010°10'815.8
2018-Apr-15 23:00N 58°36' E 010°01'19015.8
2018-Apr-15 11:00N 55°45' E 007°26'816.3
2018-Apr-15 10:29N 55°37' E 007°22'816.0
2018-Apr-15 10:01N 55°29' E 007°22'816.0
2018-Apr-15 09:30N 55°21' E 007°23'816.2
2018-Apr-15 09:00N 55°13' E 007°24'815.9
2018-Apr-15 08:31N 55°05' E 007°26'815.9
2018-Apr-15 08:00N 54°57' E 007°27'815.9
2018-Apr-15 07:30N 54°49' E 007°28'816.2
2018-Apr-15 07:00N 54°41' E 007°28'3516.0
2018-Apr-15 04:48N 54°06' E 007°34'516.3
2018-Apr-15 04:30N 54°02' E 007°39'1115.7
2018-Apr-15 03:50N 53°53' E 007°48'618.6
2018-Apr-15 03:30N 53°52' E 007°58'1019.9
2018-Apr-15 03:00N 53°46' E 008°11'1020.9
2018-Apr-15 02:30N 53°39' E 008°25'815.5
2018-Apr-15 02:00N 53°33' E 008°34'0 0.5
2018-Apr-15 01:30N 53°34' E 008°34'0 0.6
2018-Apr-15 01:00N 53°34' E 008°34'0 0.4
2018-Apr-15 00:30N 53°34' E 008°34'0 0.0
2018-Apr-15 00:00N 53°34' E 008°34'0 0.0
2018-Apr-14 23:30N 53°34' E 008°34'0 0.0
2018-Apr-14 23:00N 53°34' E 008°34'0 0.0
2018-Apr-14 22:30N 53°34' E 008°34'0 0.0
2018-Apr-14 22:00N 53°34' E 008°34'0 0.0
2018-Apr-14 21:30N 53°34' E 008°34'0 0.0
2018-Apr-14 21:00N 53°34' E 008°34'0 0.0
2018-Apr-14 20:30N 53°34' E 008°34'0 0.0
2018-Apr-14 20:00N 53°34' E 008°34'0 0.0
2018-Apr-14 19:30N 53°34' E 008°34'0 0.0
2018-Apr-14 19:00N 53°34' E 008°34'0 0.0
2018-Apr-14 18:30N 53°34' E 008°34'0 0.0
2018-Apr-14 18:00N 53°34' E 008°34'0 0.0
2018-Apr-14 17:30N 53°34' E 008°34'0 0.0
2018-Apr-14 17:00N 53°34' E 008°34'0 0.0
2018-Apr-14 16:30N 53°34' E 008°34'0 0.0
2018-Apr-14 16:00N 53°34' E 008°34'0 0.0
2018-Apr-14 15:30N 53°34' E 008°34'0 0.0
2018-Apr-14 15:00N 53°34' E 008°34'0 0.0
2018-Apr-14 14:30N 53°34' E 008°34'0 0.0
2018-Apr-14 14:00N 53°34' E 008°34'0 0.0
2018-Apr-14 13:30N 53°34' E 008°34'0 0.0
2018-Apr-14 13:00N 53°34' E 008°34'0 0.0
2018-Apr-14 12:30N 53°34' E 008°34'0 0.0
2018-Apr-14 12:00N 53°34' E 008°34'0 0.0
2018-Apr-14 11:30N 53°34' E 008°34'0 0.0
2018-Apr-14 11:00N 53°34' E 008°34'1 1.1
2018-Apr-14 10:30N 53°33' E 008°34'1 1.8
2018-Apr-14 10:01N 53°34' E 008°32'815.9
2018-Apr-14 09:30N 53°40' E 008°23'714.8
2018-Apr-14 09:00N 53°44' E 008°13'714.9
2018-Apr-14 08:30N 53°50' E 008°05'816.7
2018-Apr-14 08:00N 53°52' E 007°51'4515.4
2018-Apr-14 05:06N 54°35' E 007°26'215.0
2018-Apr-14 04:59N 54°36' E 007°26'915.2
2018-Apr-14 04:26N 54°45' E 007°25'614.9
2018-Apr-14 04:00N 54°51' E 007°25'714.9
2018-Apr-14 03:30N 54°58' E 007°24'714.8
2018-Apr-14 03:01N 55°06' E 007°23'714.6
2018-Apr-14 02:30N 55°13' E 007°22'714.4
2018-Apr-14 02:00N 55°20' E 007°22'714.6
2018-Apr-14 01:31N 55°28' E 007°22'714.3
2018-Apr-14 00:59N 55°35' E 007°22'914.2
2018-Apr-14 00:22N 55°44' E 007°26'514.5
2018-Apr-14 00:00N 55°49' E 007°28'14317.3
2018-Apr-13 15:43N 57°58' E 009°20'920.5
2018-Apr-13 15:18N 58°05' E 009°29'3220.3
2018-Apr-13 13:45N 58°31' E 010°03'520.6
2018-Apr-13 13:31N 58°35' E 010°09'1020.6
2018-Apr-13 13:01N 58°44' E 010°20'1020.3
2018-Apr-13 12:31N 58°53' E 010°28'2020.2
2018-Apr-13 11:31N 59°13' E 010°37'1020.9
2018-Apr-13 11:00N 59°23' E 010°34'1020.7
2018-Apr-13 10:30N 59°33' E 010°37'1818.3
2018-Apr-13 09:30N 59°52' E 010°37'4 8.6
2018-Apr-13 08:59N 59°53' E 010°46'0 0.0
2018-Apr-13 08:29N 59°53' E 010°46'0 0.0
2018-Apr-13 07:59N 59°53' E 010°46'0 0.0
2018-Apr-13 07:29N 59°53' E 010°46'0 0.0
2018-Apr-13 06:59N 59°53' E 010°46'0 0.0
2018-Apr-13 06:29N 59°53' E 010°46'0 0.0
2018-Apr-13 05:59N 59°53' E 010°46'0 0.0
2018-Apr-13 05:29N 59°53' E 010°46'0 0.0
2018-Apr-13 04:59N 59°53' E 010°46'0 0.0
2018-Apr-13 04:29N 59°53' E 010°46'0 0.0
2018-Apr-13 03:59N 59°53' E 010°46'0 0.0
2018-Apr-13 03:29N 59°53' E 010°46'0 0.0
2018-Apr-13 02:59N 59°53' E 010°46'0 0.0
2018-Apr-13 02:29N 59°53' E 010°46'0 0.0
2018-Apr-13 01:59N 59°53' E 010°46'0 0.0
2018-Apr-13 01:29N 59°53' E 010°46'0 0.0
2018-Apr-13 01:00N 59°53' E 010°46'5 9.8
2018-Apr-13 00:30N 59°51' E 010°37'917.2
2018-Apr-13 00:00N 59°42' E 010°36'816.0
2018-Apr-12 23:30N 59°35' E 010°38'714.6
2018-Apr-12 23:00N 59°29' E 010°28'714.4
2018-Apr-12 22:30N 59°36' E 010°25'612.4
2018-Apr-12 21:59N 59°42' E 010°20'3 7.0
2018-Apr-12 21:30N 59°44' E 010°14'0 0.0
2018-Apr-12 21:00N 59°44' E 010°14'0 0.0
2018-Apr-12 20:30N 59°44' E 010°14'0 0.0
2018-Apr-12 20:00N 59°44' E 010°14'0 0.0
2018-Apr-12 19:30N 59°44' E 010°14'0 0.0
2018-Apr-12 19:00N 59°44' E 010°14'3 5.5
2018-Apr-12 18:30N 59°43' E 010°19'713.8
2018-Apr-12 18:00N 59°37' E 010°25'611.3
2018-Apr-12 17:30N 59°31' E 010°25'918.2
2018-Apr-12 17:00N 59°23' E 010°35'918.5
2018-Apr-12 16:30N 59°14' E 010°38'918.1
2018-Apr-12 16:00N 59°05' E 010°37'918.5
2018-Apr-12 15:30N 58°57' E 010°29'918.4
2018-Apr-12 15:00N 58°49' E 010°19'918.2
2018-Apr-12 14:30N 58°41' E 010°09'918.2
2018-Apr-12 14:00N 58°34' E 009°59'2118.1
2018-Apr-12 12:51N 58°16' E 009°38'617.5
2018-Apr-12 12:30N 58°11' E 009°32'1017.4
2018-Apr-12 11:56N 58°03' E 009°21'15417.3
2018-Apr-12 03:00N 55°42' E 007°24'917.6
2018-Apr-12 02:30N 55°34' E 007°22'918.4
2018-Apr-12 02:00N 55°25' E 007°23'918.3
2018-Apr-12 01:30N 55°16' E 007°24'918.4
2018-Apr-12 01:00N 55°06' E 007°25'918.6
2018-Apr-12 00:30N 54°57' E 007°26'918.4
2018-Apr-12 00:00N 54°48' E 007°27'918.6
2018-Apr-11 23:30N 54°39' E 007°28'5216.5
2018-Apr-11 20:23N 53°51' E 008°02'718.0
2018-Apr-11 20:00N 53°46' E 008°10'917.4
2018-Apr-11 19:30N 53°41' E 008°22'815.9
2018-Apr-11 19:01N 53°35' E 008°31'2 3.0
2018-Apr-11 18:29N 53°34' E 008°33'0 0.8
2018-Apr-11 17:58N 53°35' E 008°34'0 0.0
2018-Apr-11 17:28N 53°35' E 008°34'0 0.0
2018-Apr-11 16:58N 53°35' E 008°34'0 0.0
2018-Apr-11 16:28N 53°35' E 008°34'0 0.0
2018-Apr-11 15:58N 53°35' E 008°34'0 0.0
2018-Apr-11 15:28N 53°35' E 008°34'0 0.0
2018-Apr-11 14:58N 53°35' E 008°34'0 0.0
2018-Apr-11 14:28N 53°35' E 008°34'0 0.0
2018-Apr-11 13:58N 53°35' E 008°34'0 0.0
2018-Apr-11 13:28N 53°35' E 008°34'0 0.0
2018-Apr-11 12:58N 53°35' E 008°34'0 0.0
2018-Apr-11 12:28N 53°35' E 008°34'1 1.4
2018-Apr-11 12:00N 53°34' E 008°33'0 1.0
2018-Apr-11 11:30N 53°34' E 008°34'0 0.0
2018-Apr-11 11:00N 53°34' E 008°34'0 0.0
2018-Apr-11 10:30N 53°34' E 008°34'0 0.0
2018-Apr-11 10:00N 53°34' E 008°34'0 0.0
2018-Apr-11 09:30N 53°34' E 008°34'0 0.0
2018-Apr-11 09:00N 53°34' E 008°34'0 0.0
2018-Apr-11 08:30N 53°34' E 008°34'0 0.0
2018-Apr-11 08:00N 53°34' E 008°34'0 0.0
2018-Apr-11 07:30N 53°34' E 008°34'0 0.0
2018-Apr-11 07:00N 53°34' E 008°34'0 0.0
2018-Apr-11 06:30N 53°34' E 008°34'0 0.0
2018-Apr-11 06:00N 53°34' E 008°34'0 0.0
2018-Apr-11 05:30N 53°34' E 008°34'0 0.0
2018-Apr-11 05:00N 53°34' E 008°34'0 0.0
2018-Apr-11 04:30N 53°34' E 008°34'0 0.0
2018-Apr-11 04:01N 53°34' E 008°34'0 0.0
2018-Apr-11 03:30N 53°34' E 008°34'0 0.0
2018-Apr-11 03:00N 53°34' E 008°34'0 0.0
2018-Apr-11 02:30N 53°34' E 008°34'1 1.4
2018-Apr-11 02:00N 53°34' E 008°33'0 0.1
2018-Apr-11 01:30N 53°34' E 008°33'0 0.7
2018-Apr-11 01:00N 53°34' E 008°32'612.6
2018-Apr-11 00:30N 53°39' E 008°25'815.3
2018-Apr-11 00:00N 53°44' E 008°15'612.8
2018-Apr-10 23:30N 53°48' E 008°08'5511.7
2018-Apr-10 18:49N 54°37' E 007°25'413.5
2018-Apr-10 18:30N 54°41' E 007°25'713.7
2018-Apr-10 18:00N 54°48' E 007°24'713.9
2018-Apr-10 17:30N 54°55' E 007°24'714.4
2018-Apr-10 17:00N 55°02' E 007°24'714.6
2018-Apr-10 16:30N 55°09' E 007°23'714.6
2018-Apr-10 16:00N 55°17' E 007°23'714.8
2018-Apr-10 15:30N 55°24' E 007°22'714.9
2018-Apr-10 15:00N 55°32' E 007°22'714.6
2018-Apr-10 14:30N 55°39' E 007°24'714.7
2018-Apr-10 14:00N 55°46' E 007°27'714.6
2018-Apr-10 13:30N 55°53' E 007°31'714.7
2018-Apr-10 12:59N 56°00' E 007°34'714.6
2018-Apr-10 12:29N 56°07' E 007°38'714.5
2018-Apr-10 11:59N 56°14' E 007°41'714.6
2018-Apr-10 11:29N 56°21' E 007°45'714.4
2018-Apr-10 10:58N 56°28' E 007°49'714.8
2018-Apr-10 10:30N 56°35' E 007°53'814.9
2018-Apr-10 09:59N 56°42' E 007°57'815.2
2018-Apr-10 09:29N 56°49' E 008°02'815.7
2018-Apr-10 08:59N 56°57' E 008°07'815.5
2018-Apr-10 08:29N 57°04' E 008°13'3515.3
2018-Apr-10 06:12N 57°34' E 008°47'414.7
2018-Apr-10 05:57N 57°37' E 008°51'714.9
2018-Apr-10 05:30N 57°42' E 008°58'  
Track history (hours):
 
Tides and Currents Weather Stations Pressure Air Temp Water Temp Dewpoint Dewpoint Depression Visibility Wind Speed Wind Dir Waves Ship Positions

Autopride

Last reported at 2018-Apr-20 05:03 UTC. Time now 2018-Apr-20 10:58 UTC.
Position N 57°30' E 008°42'.

Length 125 m; draft 5.3 m.

Type: Cargo ship. MMSI: 255801560.

Date/timePositionNaut miles runAvg speedWind from/ knotsBaromVisibWave heightAir tempDewpointWater temp
2018-Apr-20 05:03N 57°30' E 008°42'011.9
2018-Apr-20 05:00N 57°31' E 008°43'611.9
2018-Apr-20 04:28N 57°36' E 008°49'712.0
2018-Apr-20 03:53N 57°42' E 008°56'512.1
2018-Apr-20 03:28N 57°46' E 009°02'612.5
2018-Apr-20 02:58N 57°51' E 009°09'612.9
2018-Apr-20 02:30N 57°56' E 009°15'612.7
2018-Apr-20 02:00N 58°01' E 009°23'712.6
2018-Apr-20 01:29N 58°06' E 009°30'612.3
2018-Apr-20 01:00N 58°11' E 009°37'612.6
2018-Apr-20 00:30N 58°16' E 009°44'712.2
2018-Apr-19 23:56N 58°22' E 009°51'612.4
2018-Apr-19 23:29N 58°26' E 009°57'712.5
2018-Apr-19 22:58N 58°32' E 010°05'712.5
2018-Apr-19 22:26N 58°37' E 010°12'512.6
2018-Apr-19 22:00N 58°42' E 010°18'713.4
2018-Apr-19 21:30N 58°48' E 010°24'713.2
2018-Apr-19 21:00N 58°54' E 010°29'613.0
2018-Apr-19 20:30N 58°60' E 010°33'714.6
2018-Apr-19 20:01N 59°07' E 010°37'1019.1
2018-Apr-19 19:31N 59°16' E 010°36'918.3
2018-Apr-19 19:00N 59°25' E 010°32'816.7
2018-Apr-19 18:30N 59°32' E 010°24'5 9.5
2018-Apr-19 18:00N 59°37' E 010°25'612.5
2018-Apr-19 17:30N 59°43' E 010°18'3 5.3
2018-Apr-19 17:00N 59°44' E 010°14'0 0.0
2018-Apr-19 16:28N 59°44' E 010°14'0 0.0
2018-Apr-19 15:58N 59°44' E 010°14'0 0.0
2018-Apr-19 15:28N 59°44' E 010°14'0 0.0
2018-Apr-19 14:58N 59°44' E 010°14'0 0.0
2018-Apr-19 14:28N 59°44' E 010°14'0 0.0
2018-Apr-19 13:58N 59°44' E 010°14'0 0.0
2018-Apr-19 13:30N 59°44' E 010°14'4 7.8
2018-Apr-19 13:00N 59°42' E 010°21'611.3
2018-Apr-19 12:30N 59°37' E 010°25'5 9.9
2018-Apr-19 12:00N 59°32' E 010°24'612.5
2018-Apr-19 11:30N 59°32' E 010°36'816.9
2018-Apr-19 11:00N 59°41' E 010°37'917.5
2018-Apr-19 10:30N 59°50' E 010°35'612.8
2018-Apr-19 10:00N 59°53' E 010°46'0 0.0
2018-Apr-19 09:29N 59°53' E 010°46'0 0.0
2018-Apr-19 08:59N 59°53' E 010°46'0 0.0
2018-Apr-19 08:29N 59°53' E 010°46'0 0.0
2018-Apr-19 07:59N 59°53' E 010°46'0 0.0
2018-Apr-19 07:29N 59°53' E 010°46'0 0.0
2018-Apr-19 06:59N 59°53' E 010°46'0 0.0
2018-Apr-19 06:29N 59°53' E 010°46'0 0.0
2018-Apr-19 05:59N 59°53' E 010°46'0 0.0
2018-Apr-19 05:29N 59°53' E 010°46'0 0.0
2018-Apr-19 04:59N 59°53' E 010°46'0 0.0
2018-Apr-19 04:29N 59°53' E 010°46'0 0.0
2018-Apr-19 03:59N 59°53' E 010°46'1 3.1
2018-Apr-19 03:30N 59°53' E 010°43'714.6
2018-Apr-19 03:00N 59°47' E 010°34'714.7
2018-Apr-19 02:30N 59°40' E 010°37'917.9
2018-Apr-19 02:00N 59°31' E 010°35'1019.1
2018-Apr-19 01:30N 59°21' E 010°35'1019.5
2018-Apr-19 01:00N 59°12' E 010°38'918.8
2018-Apr-19 00:30N 59°02' E 010°34'918.3
2018-Apr-19 00:00N 58°54' E 010°25'917.2
2018-Apr-18 23:30N 58°47' E 010°16'917.3
2018-Apr-18 23:00N 58°40' E 010°07'917.6
2018-Apr-18 22:30N 58°33' E 009°58'918.0
2018-Apr-18 22:00N 58°25' E 009°49'918.3
2018-Apr-18 21:30N 58°17' E 009°39'918.2
2018-Apr-18 20:59N 58°09' E 009°30'15918.7
2018-Apr-18 12:28N 55°45' E 007°26'818.2
2018-Apr-18 12:00N 55°37' E 007°22'918.2
2018-Apr-18 11:30N 55°28' E 007°22'918.7
2018-Apr-18 11:00N 55°19' E 007°24'918.3
2018-Apr-18 10:30N 55°10' E 007°25'918.5
2018-Apr-18 10:00N 55°00' E 007°26'918.4
2018-Apr-18 09:30N 54°51' E 007°27'918.4
2018-Apr-18 09:00N 54°42' E 007°29'5018.0
2018-Apr-18 06:13N 53°53' E 007°49'519.0
2018-Apr-18 05:58N 53°52' E 007°56'919.2
2018-Apr-18 05:30N 53°47' E 008°09'1020.6
2018-Apr-18 05:00N 53°40' E 008°22'917.6
2018-Apr-18 04:30N 53°34' E 008°33'1 1.6
2018-Apr-18 04:01N 53°33' E 008°34'1 1.1
2018-Apr-18 03:30N 53°34' E 008°34'0 0.0
2018-Apr-18 03:00N 53°34' E 008°34'0 0.0
2018-Apr-18 02:30N 53°34' E 008°34'0 0.0
2018-Apr-18 02:00N 53°34' E 008°34'0 0.0
2018-Apr-18 01:30N 53°34' E 008°34'0 0.0
2018-Apr-18 01:00N 53°34' E 008°34'0 0.0
2018-Apr-18 00:30N 53°34' E 008°34'0 0.0
2018-Apr-18 00:00N 53°34' E 008°34'0 0.0
2018-Apr-17 23:30N 53°34' E 008°34'0 0.0
2018-Apr-17 23:00N 53°34' E 008°34'0 0.0
2018-Apr-17 22:30N 53°34' E 008°34'0 0.0
2018-Apr-17 22:00N 53°34' E 008°34'0 0.0
2018-Apr-17 21:30N 53°34' E 008°34'0 0.0
2018-Apr-17 21:00N 53°34' E 008°34'0 0.0
2018-Apr-17 20:30N 53°34' E 008°34'0 0.9
2018-Apr-17 20:01N 53°34' E 008°33'1 1.8
2018-Apr-17 19:28N 53°35' E 008°33'0 0.0
2018-Apr-17 18:58N 53°35' E 008°33'0 0.0
2018-Apr-17 18:28N 53°35' E 008°33'0 0.0
2018-Apr-17 17:58N 53°35' E 008°33'0 0.0
2018-Apr-17 17:28N 53°35' E 008°33'0 0.0
2018-Apr-17 16:58N 53°35' E 008°33'0 0.0
2018-Apr-17 16:25N 53°35' E 008°33'0 0.0
2018-Apr-17 15:58N 53°35' E 008°33'0 0.0
2018-Apr-17 15:28N 53°35' E 008°33'0 0.0
2018-Apr-17 14:58N 53°35' E 008°33'0 0.0
2018-Apr-17 14:28N 53°35' E 008°33'0 0.0
2018-Apr-17 13:58N 53°35' E 008°33'0 0.0
2018-Apr-17 13:28N 53°35' E 008°33'0 0.0
2018-Apr-17 12:58N 53°35' E 008°33'0 0.0
2018-Apr-17 12:28N 53°35' E 008°33'0 0.0
2018-Apr-17 12:00N 53°35' E 008°33'1 2.6
2018-Apr-17 11:30N 53°33' E 008°34'0 0.0
2018-Apr-17 11:00N 53°33' E 008°34'3 5.9
2018-Apr-17 10:30N 53°36' E 008°31'816.8
2018-Apr-17 10:00N 53°42' E 008°20'1019.3
2018-Apr-17 09:30N 53°48' E 008°08'1018.5
2018-Apr-17 08:57N 53°52' E 007°52'1416.7
2018-Apr-17 08:09N 54°01' E 007°35'317.8
2018-Apr-17 08:00N 54°03' E 007°33'1419.1
2018-Apr-17 07:17N 54°16' E 007°27'720.0
2018-Apr-17 06:55N 54°23' E 007°26'1119.8
2018-Apr-17 06:22N 54°34' E 007°26'919.3
2018-Apr-17 05:55N 54°43' E 007°25'819.2
2018-Apr-17 05:30N 54°51' E 007°25'918.9
2018-Apr-17 05:00N 55°00' E 007°24'918.7
2018-Apr-17 04:30N 55°10' E 007°24'918.4
2018-Apr-17 04:00N 55°19' E 007°23'918.3
2018-Apr-17 03:30N 55°28' E 007°21'918.4
2018-Apr-17 03:00N 55°37' E 007°22'1018.9
2018-Apr-17 02:29N 55°47' E 007°27'19119.6
2018-Apr-16 16:45N 58°36' E 010°10'520.0
2018-Apr-16 16:30N 58°40' E 010°15'1019.9
2018-Apr-16 16:00N 58°48' E 010°25'1019.6
2018-Apr-16 15:30N 58°57' E 010°32'1019.9
2018-Apr-16 15:00N 59°07' E 010°37'1019.2
2018-Apr-16 14:30N 59°17' E 010°36'1019.3
2018-Apr-16 14:00N 59°26' E 010°33'1019.3
2018-Apr-16 13:30N 59°35' E 010°38'816.3
2018-Apr-16 13:01N 59°43' E 010°34'918.6
2018-Apr-16 12:31N 59°52' E 010°39'4 7.3
2018-Apr-16 12:00N 59°53' E 010°46'0 0.0
2018-Apr-16 11:28N 59°53' E 010°46'0 0.0
2018-Apr-16 10:58N 59°53' E 010°46'0 0.0
2018-Apr-16 10:28N 59°53' E 010°46'0 0.0
2018-Apr-16 09:58N 59°53' E 010°46'0 0.0
2018-Apr-16 09:28N 59°53' E 010°46'0 0.0
2018-Apr-16 08:58N 59°53' E 010°46'0 0.0
2018-Apr-16 08:28N 59°53' E 010°46'0 0.0
2018-Apr-16 07:58N 59°53' E 010°46'0 0.0
2018-Apr-16 07:28N 59°53' E 010°46'0 0.0
2018-Apr-16 06:58N 59°53' E 010°46'0 0.0
2018-Apr-16 06:28N 59°53' E 010°46'0 0.0
2018-Apr-16 05:58N 59°53' E 010°46'0 0.0
2018-Apr-16 05:28N 59°53' E 010°46'0 0.0
2018-Apr-16 04:58N 59°53' E 010°46'0 0.0
2018-Apr-16 04:28N 59°53' E 010°46'0 0.6
2018-Apr-16 04:00N 59°53' E 010°46'713.5
2018-Apr-16 03:31N 59°49' E 010°35'816.2
2018-Apr-16 03:00N 59°41' E 010°37'816.8
2018-Apr-16 02:30N 59°33' E 010°37'1019.5
2018-Apr-16 02:00N 59°23' E 010°35'1020.2
2018-Apr-16 01:30N 59°13' E 010°38'1019.0
2018-Apr-16 01:00N 59°04' E 010°36'919.0
2018-Apr-16 00:30N 58°55' E 010°27'815.7
2018-Apr-16 00:00N 58°49' E 010°18'815.7
2018-Apr-15 23:30N 58°42' E 010°10'815.8
2018-Apr-15 23:00N 58°36' E 010°01'19015.8
2018-Apr-15 11:00N 55°45' E 007°26'816.3
2018-Apr-15 10:29N 55°37' E 007°22'816.0
2018-Apr-15 10:01N 55°29' E 007°22'816.0
2018-Apr-15 09:30N 55°21' E 007°23'816.2
2018-Apr-15 09:00N 55°13' E 007°24'815.9
2018-Apr-15 08:31N 55°05' E 007°26'815.9
2018-Apr-15 08:00N 54°57' E 007°27'815.9
2018-Apr-15 07:30N 54°49' E 007°28'816.2
2018-Apr-15 07:00N 54°41' E 007°28'3516.0
2018-Apr-15 04:48N 54°06' E 007°34'516.3
2018-Apr-15 04:30N 54°02' E 007°39'1115.7
2018-Apr-15 03:50N 53°53' E 007°48'618.6
2018-Apr-15 03:30N 53°52' E 007°58'1019.9
2018-Apr-15 03:00N 53°46' E 008°11'1020.9
2018-Apr-15 02:30N 53°39' E 008°25'815.5
2018-Apr-15 02:00N 53°33' E 008°34'0 0.5
2018-Apr-15 01:30N 53°34' E 008°34'0 0.6
2018-Apr-15 01:00N 53°34' E 008°34'0 0.4
2018-Apr-15 00:30N 53°34' E 008°34'0 0.0
2018-Apr-15 00:00N 53°34' E 008°34'0 0.0
2018-Apr-14 23:30N 53°34' E 008°34'0 0.0
2018-Apr-14 23:00N 53°34' E 008°34'0 0.0
2018-Apr-14 22:30N 53°34' E 008°34'0 0.0
2018-Apr-14 22:00N 53°34' E 008°34'0 0.0
2018-Apr-14 21:30N 53°34' E 008°34'0 0.0
2018-Apr-14 21:00N 53°34' E 008°34'0 0.0
2018-Apr-14 20:30N 53°34' E 008°34'0 0.0
2018-Apr-14 20:00N 53°34' E 008°34'0 0.0
2018-Apr-14 19:30N 53°34' E 008°34'0 0.0
2018-Apr-14 19:00N 53°34' E 008°34'0 0.0
2018-Apr-14 18:30N 53°34' E 008°34'0 0.0
2018-Apr-14 18:00N 53°34' E 008°34'0 0.0
2018-Apr-14 17:30N 53°34' E 008°34'0 0.0
2018-Apr-14 17:00N 53°34' E 008°34'0 0.0
2018-Apr-14 16:30N 53°34' E 008°34'0 0.0
2018-Apr-14 16:00N 53°34' E 008°34'0 0.0
2018-Apr-14 15:30N 53°34' E 008°34'0 0.0
2018-Apr-14 15:00N 53°34' E 008°34'0 0.0
2018-Apr-14 14:30N 53°34' E 008°34'0 0.0
2018-Apr-14 14:00N 53°34' E 008°34'0 0.0
2018-Apr-14 13:30N 53°34' E 008°34'0 0.0
2018-Apr-14 13:00N 53°34' E 008°34'0 0.0
2018-Apr-14 12:30N 53°34' E 008°34'0 0.0
2018-Apr-14 12:00N 53°34' E 008°34'0 0.0
2018-Apr-14 11:30N 53°34' E 008°34'0 0.0
2018-Apr-14 11:00N 53°34' E 008°34'1 1.1
2018-Apr-14 10:30N 53°33' E 008°34'1 1.8
2018-Apr-14 10:01N 53°34' E 008°32'815.9
2018-Apr-14 09:30N 53°40' E 008°23'714.8
2018-Apr-14 09:00N 53°44' E 008°13'714.9
2018-Apr-14 08:30N 53°50' E 008°05'816.7
2018-Apr-14 08:00N 53°52' E 007°51'4515.4
2018-Apr-14 05:06N 54°35' E 007°26'215.0
2018-Apr-14 04:59N 54°36' E 007°26'915.2
2018-Apr-14 04:26N 54°45' E 007°25'614.9
2018-Apr-14 04:00N 54°51' E 007°25'714.9
2018-Apr-14 03:30N 54°58' E 007°24'714.8
2018-Apr-14 03:01N 55°06' E 007°23'714.6
2018-Apr-14 02:30N 55°13' E 007°22'714.4
2018-Apr-14 02:00N 55°20' E 007°22'714.6
2018-Apr-14 01:31N 55°28' E 007°22'714.3
2018-Apr-14 00:59N 55°35' E 007°22'914.2
2018-Apr-14 00:22N 55°44' E 007°26'514.5
2018-Apr-14 00:00N 55°49' E 007°28'14317.3
2018-Apr-13 15:43N 57°58' E 009°20'920.5
2018-Apr-13 15:18N 58°05' E 009°29'3220.3
2018-Apr-13 13:45N 58°31' E 010°03'520.6
2018-Apr-13 13:31N 58°35' E 010°09'1020.6
2018-Apr-13 13:01N 58°44' E 010°20'1020.3
2018-Apr-13 12:31N 58°53' E 010°28'2020.2
2018-Apr-13 11:31N 59°13' E 010°37'1020.9
2018-Apr-13 11:00N 59°23' E 010°34'1020.7
2018-Apr-13 10:30N 59°33' E 010°37'1818.3
2018-Apr-13 09:30N 59°52' E 010°37'4 8.6
2018-Apr-13 08:59N 59°53' E 010°46'0 0.0
2018-Apr-13 08:29N 59°53' E 010°46'0 0.0
2018-Apr-13 07:59N 59°53' E 010°46'0 0.0
2018-Apr-13 07:29N 59°53' E 010°46'0 0.0
2018-Apr-13 06:59N 59°53' E 010°46'0 0.0
2018-Apr-13 06:29N 59°53' E 010°46'0 0.0
2018-Apr-13 05:59N 59°53' E 010°46'0 0.0
2018-Apr-13 05:29N 59°53' E 010°46'0 0.0
2018-Apr-13 04:59N 59°53' E 010°46'0 0.0
2018-Apr-13 04:29N 59°53' E 010°46'0 0.0
2018-Apr-13 03:59N 59°53' E 010°46'0 0.0
2018-Apr-13 03:29N 59°53' E 010°46'0 0.0
2018-Apr-13 02:59N 59°53' E 010°46'0 0.0
2018-Apr-13 02:29N 59°53' E 010°46'0 0.0
2018-Apr-13 01:59N 59°53' E 010°46'0 0.0
2018-Apr-13 01:29N 59°53' E 010°46'0 0.0
2018-Apr-13 01:00N 59°53' E 010°46'5 9.8
2018-Apr-13 00:30N 59°51' E 010°37'917.2
2018-Apr-13 00:00N 59°42' E 010°36'816.0
2018-Apr-12 23:30N 59°35' E 010°38'714.6
2018-Apr-12 23:00N 59°29' E 010°28'714.4
2018-Apr-12 22:30N 59°36' E 010°25'612.4
2018-Apr-12 21:59N 59°42' E 010°20'3 7.0
2018-Apr-12 21:30N 59°44' E 010°14'0 0.0
2018-Apr-12 21:00N 59°44' E 010°14'0 0.0
2018-Apr-12 20:30N 59°44' E 010°14'0 0.0
2018-Apr-12 20:00N 59°44' E 010°14'0 0.0
2018-Apr-12 19:30N 59°44' E 010°14'0 0.0
2018-Apr-12 19:00N 59°44' E 010°14'3 5.5
2018-Apr-12 18:30N 59°43' E 010°19'713.8
2018-Apr-12 18:00N 59°37' E 010°25'611.3
2018-Apr-12 17:30N 59°31' E 010°25'918.2
2018-Apr-12 17:00N 59°23' E 010°35'918.5
2018-Apr-12 16:30N 59°14' E 010°38'918.1
2018-Apr-12 16:00N 59°05' E 010°37'918.5
2018-Apr-12 15:30N 58°57' E 010°29'918.4
2018-Apr-12 15:00N 58°49' E 010°19'918.2
2018-Apr-12 14:30N 58°41' E 010°09'918.2
2018-Apr-12 14:00N 58°34' E 009°59'2118.1
2018-Apr-12 12:51N 58°16' E 009°38'617.5
2018-Apr-12 12:30N 58°11' E 009°32'1017.4
2018-Apr-12 11:56N 58°03' E 009°21'15417.3
2018-Apr-12 03:00N 55°42' E 007°24'917.6
2018-Apr-12 02:30N 55°34' E 007°22'918.4
2018-Apr-12 02:00N 55°25' E 007°23'918.3
2018-Apr-12 01:30N 55°16' E 007°24'918.4
2018-Apr-12 01:00N 55°06' E 007°25'918.6
2018-Apr-12 00:30N 54°57' E 007°26'918.4
2018-Apr-12 00:00N 54°48' E 007°27'918.6
2018-Apr-11 23:30N 54°39' E 007°28'5216.5
2018-Apr-11 20:23N 53°51' E 008°02'718.0
2018-Apr-11 20:00N 53°46' E 008°10'917.4
2018-Apr-11 19:30N 53°41' E 008°22'815.9
2018-Apr-11 19:01N 53°35' E 008°31'2 3.0
2018-Apr-11 18:29N 53°34' E 008°33'0 0.8
2018-Apr-11 17:58N 53°35' E 008°34'0 0.0
2018-Apr-11 17:28N 53°35' E 008°34'0 0.0
2018-Apr-11 16:58N 53°35' E 008°34'0 0.0
2018-Apr-11 16:28N 53°35' E 008°34'0 0.0
2018-Apr-11 15:58N 53°35' E 008°34'0 0.0
2018-Apr-11 15:28N 53°35' E 008°34'0 0.0
2018-Apr-11 14:58N 53°35' E 008°34'0 0.0
2018-Apr-11 14:28N 53°35' E 008°34'0 0.0
2018-Apr-11 13:58N 53°35' E 008°34'0 0.0
2018-Apr-11 13:28N 53°35' E 008°34'0 0.0
2018-Apr-11 12:58N 53°35' E 008°34'0 0.0
2018-Apr-11 12:28N 53°35' E 008°34'1 1.4
2018-Apr-11 12:00N 53°34' E 008°33'0 1.0
2018-Apr-11 11:30N 53°34' E 008°34'0 0.0
2018-Apr-11 11:00N 53°34' E 008°34'0 0.0
2018-Apr-11 10:30N 53°34' E 008°34'0 0.0
2018-Apr-11 10:00N 53°34' E 008°34'0 0.0
2018-Apr-11 09:30N 53°34' E 008°34'0 0.0
2018-Apr-11 09:00N 53°34' E 008°34'0 0.0
2018-Apr-11 08:30N 53°34' E 008°34'0 0.0
2018-Apr-11 08:00N 53°34' E 008°34'0 0.0
2018-Apr-11 07:30N 53°34' E 008°34'0 0.0
2018-Apr-11 07:00N 53°34' E 008°34'0 0.0
2018-Apr-11 06:30N 53°34' E 008°34'0 0.0
2018-Apr-11 06:00N 53°34' E 008°34'0 0.0
2018-Apr-11 05:30N 53°34' E 008°34'0 0.0
2018-Apr-11 05:00N 53°34' E 008°34'0 0.0
2018-Apr-11 04:30N 53°34' E 008°34'0 0.0
2018-Apr-11 04:01N 53°34' E 008°34'0 0.0
2018-Apr-11 03:30N 53°34' E 008°34'0 0.0
2018-Apr-11 03:00N 53°34' E 008°34'0 0.0
2018-Apr-11 02:30N 53°34' E 008°34'1 1.4
2018-Apr-11 02:00N 53°34' E 008°33'0 0.1
2018-Apr-11 01:30N 53°34' E 008°33'0 0.7
2018-Apr-11 01:00N 53°34' E 008°32'612.6
2018-Apr-11 00:30N 53°39' E 008°25'815.3
2018-Apr-11 00:00N 53°44' E 008°15'612.8
2018-Apr-10 23:30N 53°48' E 008°08'5511.7
2018-Apr-10 18:49N 54°37' E 007°25'413.5
2018-Apr-10 18:30N 54°41' E 007°25'713.7
2018-Apr-10 18:00N 54°48' E 007°24'713.9
2018-Apr-10 17:30N 54°55' E 007°24'714.4
2018-Apr-10 17:00N 55°02' E 007°24'714.6
2018-Apr-10 16:30N 55°09' E 007°23'714.6
2018-Apr-10 16:00N 55°17' E 007°23'714.8
2018-Apr-10 15:30N 55°24' E 007°22'714.9
2018-Apr-10 15:00N 55°32' E 007°22'714.6
2018-Apr-10 14:30N 55°39' E 007°24'714.7
2018-Apr-10 14:00N 55°46' E 007°27'714.6
2018-Apr-10 13:30N 55°53' E 007°31'714.7
2018-Apr-10 12:59N 56°00' E 007°34'714.6
2018-Apr-10 12:29N 56°07' E 007°38'714.5
2018-Apr-10 11:59N 56°14' E 007°41'714.6
2018-Apr-10 11:29N 56°21' E 007°45'714.4
2018-Apr-10 10:58N 56°28' E 007°49'714.8
2018-Apr-10 10:30N 56°35' E 007°53'814.9
2018-Apr-10 09:59N 56°42' E 007°57'815.2
2018-Apr-10 09:29N 56°49' E 008°02'815.7
2018-Apr-10 08:59N 56°57' E 008°07'815.5
2018-Apr-10 08:29N 57°04' E 008°13'3515.3
2018-Apr-10 06:12N 57°34' E 008°47'414.7
2018-Apr-10 05:57N 57°37' E 008°51'714.9
2018-Apr-10 05:30N 57°42' E 008°58'  

Dump ship's entire track history